Time;durP1;ratioP1;P1;durP2;ratioP2;P2;SDS_P1;SDS_P2;PMS_P1;PMS_P2;Temp;Humidity;BMP_temperature;BMP_pressure;BME280_temperature;BME280_humidity;BME280_pressure;Samples;Min_cycle;Max_cycle;Signal;HPM_P1;HPM_P2
2022/01/10 00:00:16;;;;;;;5.93;4.20;;;7.50;71.90;;;-142.21;100.00;112049.66;4974426;28;20446;-78
2022/01/10 00:02:48;;;;;;;4.87;3.73;;;7.40;72.00;;;-142.21;100.00;112049.66;4973373;28;20572;-77
2022/01/10 00:05:16;;;;;;;5.10;3.17;;;7.40;71.90;;;-142.21;100.00;112049.66;4957353;28;20511;-78
2022/01/10 00:07:43;;;;;;;4.18;3.00;;;7.40;72.00;;;-142.21;100.00;112049.66;4973835;28;20502;-78
2022/01/10 00:10:12;;;;;;;5.87;3.70;;;7.30;72.20;;;-142.21;100.00;112049.66;4973999;28;20236;-79
2022/01/10 00:12:40;;;;;;;5.80;3.43;;;7.30;72.20;;;-142.21;100.00;112049.66;4957144;28;20444;-79
2022/01/10 00:15:09;;;;;;;5.47;3.17;;;7.40;72.20;;;-142.21;100.00;112049.66;4986363;28;20521;-79
2022/01/10 00:17:39;;;;;;;5.47;3.70;;;7.30;72.50;;;-142.21;100.00;112049.66;4992446;28;20550;-79
2022/01/10 00:20:09;;;;;;;6.70;3.63;;;7.30;72.60;;;-142.21;100.00;112049.66;4993489;28;20475;-79
2022/01/10 00:22:37;;;;;;;6.53;4.40;;;7.30;72.60;;;-142.21;100.00;112049.66;4993101;28;20215;-79
2022/01/10 00:25:05;;;;;;;7.97;3.97;;;7.30;72.50;;;-142.21;100.00;112049.66;4993270;28;20522;-79
2022/01/10 00:27:32;;;;;;;6.07;3.83;;;7.30;71.80;;;-142.21;100.00;112049.66;4993070;28;20538;-79
2022/01/10 00:30:00;;;;;;;5.03;3.80;;;7.40;71.70;;;-142.21;100.00;112049.66;4992712;28;20479;-78
2022/01/10 00:32:28;;;;;;;6.20;4.93;;;7.40;71.80;;;-142.21;100.00;112049.66;4993098;28;20447;-78
2022/01/10 00:34:56;;;;;;;5.93;4.73;;;7.30;71.80;;;-142.21;100.00;112049.66;4992573;28;20455;-78
2022/01/10 00:37:23;;;;;;;6.27;4.90;;;7.30;71.80;;;-142.21;100.00;112049.66;4993319;28;20545;-79
2022/01/10 00:39:50;;;;;;;7.70;5.90;;;7.30;71.90;;;-142.21;100.00;112049.66;4992057;28;20454;-79
2022/01/10 00:42:18;;;;;;;5.97;5.28;;;7.20;71.70;;;-142.21;100.00;112049.66;4992410;28;20497;-78
2022/01/10 00:44:50;;;;;;;7.90;5.00;;;7.20;71.90;;;-142.21;100.00;112049.66;4992675;28;20298;-79
2022/01/10 00:47:19;;;;;;;9.10;5.43;;;7.20;72.10;;;-142.21;100.00;112049.66;4992700;28;20450;-79
2022/01/10 00:49:47;;;;;;;7.53;5.97;;;7.10;72.20;;;-142.21;100.00;112049.66;4992720;28;20445;-79
2022/01/10 00:52:15;;;;;;;7.07;5.23;;;7.10;72.20;;;-142.21;100.00;112049.66;4992181;28;21026;-79
2022/01/10 00:54:43;;;;;;;6.68;5.10;;;7.10;72.30;;;-142.21;100.00;112049.66;4992811;28;20463;-79
2022/01/10 00:57:10;;;;;;;7.13;5.30;;;7.10;72.30;;;-142.21;100.00;112049.66;4975363;28;20203;-79
2022/01/10 00:59:38;;;;;;;6.53;5.03;;;7.10;72.30;;;-142.21;100.00;112049.66;4992928;28;20451;-79
2022/01/10 01:02:06;;;;;;;5.03;4.53;;;7.10;72.50;;;-142.21;100.00;112049.66;4992038;28;20451;-79
2022/01/10 01:04:33;;;;;;;6.13;5.53;;;7.00;72.60;;;-142.21;100.00;112049.66;4992731;28;20482;-78
2022/01/10 01:07:01;;;;;;;6.60;5.05;;;6.90;72.50;;;-142.21;100.00;112049.66;4992228;28;20295;-78
2022/01/10 01:09:31;;;;;;;6.80;5.23;;;7.00;73.00;;;-142.21;100.00;112049.66;4991845;28;20303;-79
2022/01/10 01:12:15;;;;;;;8.68;5.40;;;7.00;72.90;;;-142.21;100.00;112049.66;4992644;28;20466;-78
2022/01/10 01:14:55;;;;;;;14.68;6.07;;;7.00;72.70;;;-142.21;100.00;112049.66;4992463;28;20184;-78
2022/01/10 01:17:56;;;;;;;9.55;5.32;;;7.00;72.60;;;-142.21;100.00;112049.66;4992368;28;20271;-79
2022/01/10 01:20:42;;;;;;;6.97;5.15;;;7.00;72.90;;;-142.21;100.00;112049.66;4992160;28;20210;-78
2022/01/10 01:26:01;;;;;;;9.87;6.47;;;7.00;73.00;;;-142.21;100.00;112049.66;4978426;28;20211;-78
2022/01/10 01:28:29;;;;;;;7.50;6.40;;;7.00;72.90;;;-142.21;100.00;112049.66;4991777;28;20447;-79
2022/01/10 01:30:56;;;;;;;8.27;5.50;;;7.00;72.80;;;-142.21;100.00;112049.66;4992037;28;20207;-79
2022/01/10 01:33:24;;;;;;;7.23;5.20;;;7.00;72.70;;;-142.21;100.00;112049.66;4992257;28;20209;-78
2022/01/10 01:35:53;;;;;;;7.23;5.73;;;7.10;72.40;;;-142.21;100.00;112049.66;4992024;28;20457;-78
2022/01/10 01:38:20;;;;;;;7.23;5.63;;;7.10;72.60;;;-142.21;100.00;112049.66;4991777;28;20557;-78
2022/01/10 01:40:55;;;;;;;7.70;5.73;;;7.00;72.50;;;-142.21;100.00;112049.66;4992349;28;20455;-79
2022/01/10 01:43:23;;;;;;;8.25;5.60;;;7.10;72.60;;;-142.21;100.00;112049.66;4991752;28;21021;-80
2022/01/10 01:45:52;;;;;;;8.00;5.80;;;7.10;72.60;;;-142.21;100.00;112049.66;4975062;28;20212;-79
2022/01/10 01:48:19;;;;;;;7.77;5.50;;;7.10;72.60;;;-142.21;100.00;112049.66;4992610;28;20239;-79
2022/01/10 01:50:47;;;;;;;7.93;5.70;;;7.20;72.70;;;-142.21;100.00;112049.66;4991878;28;20869;-79
2022/01/10 01:53:14;;;;;;;8.80;6.00;;;7.10;72.90;;;-142.21;100.00;112049.66;4992178;28;20453;-79
2022/01/10 01:55:41;;;;;;;9.17;6.37;;;7.10;73.00;;;-142.21;100.00;112049.66;4991608;28;20699;-79
2022/01/10 01:58:09;;;;;;;5.83;5.20;;;7.10;73.80;;;-142.21;100.00;112049.66;4991545;28;20558;-78
2022/01/10 02:00:37;;;;;;;8.40;5.53;;;7.20;72.80;;;-142.21;100.00;112049.66;4991360;28;20485;-78
2022/01/10 02:03:04;;;;;;;7.70;5.83;;;7.30;72.60;;;-142.21;100.00;112049.66;4992329;28;20488;-78
2022/01/10 02:05:32;;;;;;;7.13;5.40;;;7.20;72.40;;;-142.21;100.00;112049.66;4992063;28;20446;-78
2022/01/10 02:07:59;;;;;;;6.40;5.70;;;7.20;72.70;;;-142.21;100.00;112049.66;4991928;28;20554;-77
2022/01/10 02:10:28;;;;;;;8.27;6.33;;;7.20;72.90;;;-142.21;100.00;112049.66;4992276;28;20538;-79
2022/01/10 02:12:55;;;;;;;7.00;5.27;;;7.20;73.20;;;-142.21;100.00;112049.66;4974133;28;20538;-79
2022/01/10 02:15:34;;;;;;;8.27;6.23;;;7.10;73.00;;;-142.21;100.00;112049.66;4972939;28;20803;-79
2022/01/10 02:18:04;;;;;;;6.33;5.37;;;7.20;73.20;;;-142.21;100.00;112049.66;4972144;28;20569;-79
2022/01/10 02:20:34;;;;;;;6.90;5.27;;;7.20;73.00;;;-142.21;100.00;112049.66;4973191;28;20456;-79
2022/01/10 02:23:02;;;;;;;6.00;5.40;;;7.20;73.20;;;-142.21;100.00;112049.66;4975680;28;20482;-79
2022/01/10 02:25:29;;;;;;;6.77;5.20;;;7.20;72.90;;;-142.21;100.00;112049.66;4976142;28;20465;-78
2022/01/10 02:27:57;;;;;;;7.67;5.20;;;7.20;73.10;;;-142.21;100.00;112049.66;4975205;28;20448;-79
2022/01/10 02:30:24;;;;;;;7.50;5.33;;;7.20;73.20;;;-142.21;100.00;112049.66;4976058;28;20577;-78
2022/01/10 02:32:52;;;;;;;7.73;5.57;;;7.20;73.30;;;-142.21;100.00;112049.66;4977383;28;20567;-78
2022/01/10 02:35:23;;;;;;;8.43;6.90;;;7.20;73.20;;;-142.21;100.00;112049.66;4995924;28;20447;-78
2022/01/10 02:37:54;;;;;;;7.53;5.40;;;7.20;73.10;;;-142.21;100.00;112049.66;4996247;28;20465;-79
2022/01/10 02:40:24;;;;;;;8.80;6.30;;;7.20;73.10;;;-142.21;100.00;112049.66;4995984;28;20447;-78
2022/01/10 02:42:52;;;;;;;8.20;5.78;;;7.10;72.90;;;-142.21;100.00;112049.66;4995307;28;20479;-79
2022/01/10 02:45:21;;;;;;;6.77;5.60;;;7.10;73.10;;;-142.21;100.00;112049.66;4995388;28;20214;-81
2022/01/10 02:47:49;;;;;;;9.00;6.73;;;7.20;73.20;;;-142.21;100.00;112049.66;4996067;28;20537;-79
2022/01/10 02:50:20;;;;;;;8.32;6.57;;;7.20;73.20;;;-142.21;100.00;112049.66;4994891;28;20451;-79
2022/01/10 02:52:50;;;;;;;8.30;6.30;;;7.20;73.20;;;-142.21;100.00;112049.66;4962081;28;20231;-79
2022/01/10 02:55:19;;;;;;;8.03;6.70;;;7.10;72.90;;;-142.21;100.00;112049.66;4995748;28;20471;-78
2022/01/10 02:57:46;;;;;;;8.20;5.47;;;7.10;73.00;;;-142.21;100.00;112049.66;4978724;28;20793;-79
2022/01/10 03:00:17;;;;;;;9.17;6.20;;;7.10;73.00;;;-142.21;100.00;112049.66;4994990;28;20711;-79
2022/01/10 03:02:49;;;;;;;8.77;6.93;;;7.20;73.30;;;-142.21;100.00;112049.66;4994669;28;20443;-79
2022/01/10 03:05:17;;;;;;;8.75;6.65;;;7.20;73.20;;;-142.21;100.00;112049.66;4976497;28;20483;-78
2022/01/10 03:07:45;;;;;;;8.17;5.80;;;7.20;73.60;;;-142.21;100.00;112049.66;4994927;28;20303;-78
2022/01/10 03:10:13;;;;;;;8.90;6.47;;;7.10;73.90;;;-142.21;100.00;112049.66;4994695;28;20987;-79
2022/01/10 03:12:43;;;;;;;9.37;6.27;;;7.20;73.80;;;-142.21;100.00;112049.66;4994295;28;20457;-79
2022/01/10 03:15:12;;;;;;;8.17;6.27;;;7.20;73.90;;;-142.21;100.00;112049.66;4994840;28;20444;-79
2022/01/10 03:17:40;;;;;;;7.83;6.83;;;7.10;74.10;;;-142.21;100.00;112049.66;4993575;28;20452;-78
2022/01/10 03:20:10;;;;;;;9.83;6.80;;;7.20;74.10;;;-142.21;100.00;112049.66;4977228;28;20455;-79
2022/01/10 03:22:38;;;;;;;9.67;7.67;;;7.30;74.70;;;-142.21;100.00;112049.66;4994229;28;20526;-79
2022/01/10 03:25:07;;;;;;;9.53;7.00;;;7.30;73.80;;;-142.21;100.00;112049.66;4976803;28;20497;-79
2022/01/10 03:27:35;;;;;;;10.13;6.07;;;7.20;73.60;;;-142.21;100.00;112049.66;4993328;28;20477;-78
2022/01/10 03:30:05;;;;;;;8.07;6.77;;;7.30;73.70;;;-142.21;100.00;112049.66;4994161;28;20451;-78
2022/01/10 03:32:32;;;;;;;8.43;6.13;;;7.30;73.40;;;-142.21;100.00;112049.66;4993262;28;20453;-79
2022/01/10 03:35:00;;;;;;;10.63;6.32;;;7.30;73.30;;;-142.21;100.00;112049.66;4994286;28;20538;-79
2022/01/10 03:37:27;;;;;;;9.77;6.50;;;7.40;73.40;;;-142.21;100.00;112049.66;4994504;28;20294;-79
2022/01/10 03:39:55;;;;;;;9.00;6.17;;;7.30;73.30;;;-142.21;100.00;112049.66;4993255;28;20457;-77
2022/01/10 03:42:23;;;;;;;6.80;6.10;;;7.30;73.80;;;-142.21;100.00;112049.66;4993567;28;20510;-79
2022/01/10 03:44:50;;;;;;;8.23;6.73;;;7.30;74.00;;;-142.21;100.00;112049.66;4976238;28;20538;-79
2022/01/10 03:47:20;;;;;;;10.33;7.90;;;7.20;74.10;;;-142.21;100.00;112049.66;4993607;28;20954;-78
2022/01/10 03:49:48;;;;;;;9.05;6.85;;;7.30;73.80;;;-142.21;100.00;112049.66;4993298;28;20901;-78
2022/01/10 03:52:15;;;;;;;8.90;6.60;;;7.20;73.60;;;-142.21;100.00;112049.66;4993797;28;20306;-79
2022/01/10 03:54:43;;;;;;;8.23;7.03;;;7.20;73.70;;;-142.21;100.00;112049.66;4993165;28;20546;-79
2022/01/10 03:57:11;;;;;;;10.85;9.00;;;7.20;73.70;;;-142.21;100.00;112049.66;4993966;28;20886;-79
2022/01/10 03:59:38;;;;;;;9.83;7.50;;;7.20;73.60;;;-142.21;100.00;112049.66;4993949;28;20211;-79
2022/01/10 04:02:05;;;;;;;6.78;5.78;;;7.20;73.60;;;-142.21;100.00;112049.66;4993136;28;20451;-79
2022/01/10 04:04:36;;;;;;;8.17;6.70;;;7.20;73.80;;;-142.21;100.00;112049.66;4993744;28;20238;-79
2022/01/10 04:07:04;;;;;;;7.30;6.60;;;7.20;74.00;;;-142.21;100.00;112049.66;4992913;28;20458;-79
2022/01/10 04:09:31;;;;;;;7.37;5.90;;;7.10;74.10;;;-142.21;100.00;112049.66;4993761;28;20465;-78
2022/01/10 04:11:58;;;;;;;8.93;7.17;;;7.20;73.90;;;-142.21;100.00;112049.66;4993135;28;20482;-78
2022/01/10 04:14:25;;;;;;;7.60;6.80;;;7.20;73.30;;;-142.21;100.00;112049.66;4993426;28;20473;-78
2022/01/10 04:16:52;;;;;;;9.40;7.95;;;7.20;73.20;;;-142.21;100.00;112049.66;4992966;28;20543;-78
2022/01/10 04:19:20;;;;;;;8.93;6.83;;;7.20;73.90;;;-142.21;100.00;112049.66;4993509;28;20234;-78
2022/01/10 04:21:48;;;;;;;8.87;7.90;;;7.10;73.40;;;-142.21;100.00;112049.66;4975695;28;20462;-78
2022/01/10 04:24:16;;;;;;;7.47;6.53;;;7.20;73.50;;;-142.21;100.00;112049.66;4956421;28;20672;-78
2022/01/10 04:26:43;;;;;;;8.70;7.37;;;7.20;73.60;;;-142.21;100.00;112049.66;4990323;28;20466;-78
2022/01/10 04:29:10;;;;;;;9.52;7.68;;;7.20;74.90;;;-142.21;100.00;112049.66;4992698;28;20538;-79
2022/01/10 04:31:38;;;;;;;8.43;7.50;;;7.20;73.90;;;-142.21;100.00;112049.66;4992933;28;20303;-78
2022/01/10 04:34:05;;;;;;;8.53;7.03;;;7.20;74.40;;;-142.21;100.00;112049.66;4992458;28;20534;-79
2022/01/10 04:36:32;;;;;;;9.93;7.83;;;7.20;74.20;;;-142.21;100.00;112049.66;4992823;28;20494;-79
2022/01/10 04:39:01;;;;;;;8.47;6.93;;;7.20;74.10;;;-142.21;100.00;112049.66;4992956;28;20976;-78
2022/01/10 04:41:28;;;;;;;13.33;8.87;;;7.20;74.00;;;-142.21;100.00;112049.66;4992288;28;20565;-78
2022/01/10 04:43:55;;;;;;;10.18;8.27;;;7.20;74.00;;;-142.21;100.00;112049.66;4972785;28;20563;-78
2022/01/10 04:46:22;;;;;;;12.00;7.63;;;7.20;74.40;;;-142.21;100.00;112049.66;4981461;28;20242;-78
2022/01/10 04:48:49;;;;;;;7.80;6.77;;;7.30;73.70;;;-142.21;100.00;112049.66;4976045;28;20478;-78
2022/01/10 04:51:17;;;;;;;8.07;6.63;;;7.30;73.90;;;-142.21;100.00;112049.66;4972958;28;20531;-78
2022/01/10 04:53:47;;;;;;;7.70;6.40;;;7.30;74.20;;;-142.21;100.00;112049.66;4973250;28;20491;-77
2022/01/10 04:56:18;;;;;;;7.97;6.47;;;7.20;73.30;;;-142.21;100.00;112049.66;4973626;28;20539;-78
2022/01/10 04:58:48;;;;;;;8.55;7.38;;;7.30;73.20;;;-142.21;100.00;112049.66;4974039;28;20836;-78
2022/01/10 05:01:17;;;;;;;7.10;6.37;;;7.30;72.90;;;-142.21;100.00;112049.66;4992389;28;20199;-78
2022/01/10 05:03:44;;;;;;;9.80;6.97;;;7.30;72.80;;;-142.21;100.00;112049.66;4992840;28;20853;-78
2022/01/10 05:06:12;;;;;;;9.63;7.30;;;7.30;73.10;;;-142.21;100.00;112049.66;4992576;28;20299;-78
2022/01/10 05:08:39;;;;;;;10.20;6.70;;;7.30;72.90;;;-142.21;100.00;112049.66;4992412;28;20469;-79
2022/01/10 05:11:06;;;;;;;8.98;6.88;;;7.30;73.30;;;-142.21;100.00;112049.66;4992968;28;20627;-79
2022/01/10 05:13:35;;;;;;;9.23;6.97;;;7.20;73.60;;;-142.21;100.00;112049.66;4991976;28;20243;-79
2022/01/10 05:16:02;;;;;;;9.43;7.07;;;7.20;73.80;;;-142.21;100.00;112049.66;4991959;28;20533;-78
2022/01/10 05:18:31;;;;;;;10.30;8.23;;;7.30;73.60;;;-142.21;100.00;112049.66;4992357;28;20450;-79
2022/01/10 05:20:58;;;;;;;8.20;7.20;;;7.30;73.70;;;-142.21;100.00;112049.66;4992276;28;20826;-78
2022/01/10 05:23:25;;;;;;;10.23;7.70;;;7.30;73.90;;;-142.21;100.00;112049.66;4992665;28;20546;-78
2022/01/10 05:25:52;;;;;;;11.43;9.37;;;7.30;73.80;;;-142.21;100.00;112049.66;4992057;28;21051;-78
2022/01/10 05:28:20;;;;;;;8.30;7.00;;;7.30;73.70;;;-142.21;100.00;112049.66;4992347;28;20454;-78
2022/01/10 05:30:52;;;;;;;7.97;7.17;;;7.30;73.90;;;-142.21;100.00;112049.66;4991923;28;20807;-79
2022/01/10 05:33:19;;;;;;;8.07;7.00;;;7.30;74.20;;;-142.21;100.00;112049.66;4992735;28;20463;-78
2022/01/10 05:35:46;;;;;;;9.60;7.50;;;7.30;74.00;;;-142.21;100.00;112049.66;4991611;28;20447;-78
2022/01/10 05:38:15;;;;;;;8.43;7.63;;;7.40;74.10;;;-142.21;100.00;112049.66;4992384;28;20455;-79
2022/01/10 05:40:42;;;;;;;8.87;7.10;;;7.40;73.80;;;-142.21;100.00;112049.66;4992381;28;20541;-79
2022/01/10 05:43:10;;;;;;;7.70;6.67;;;7.40;73.70;;;-142.21;100.00;112049.66;4992157;28;21065;-79
2022/01/10 05:45:37;;;;;;;9.93;7.53;;;7.40;73.60;;;-142.21;100.00;112049.66;4992161;28;20512;-79
2022/01/10 05:48:12;;;;;;;8.32;7.25;;;7.40;73.60;;;-142.21;100.00;112049.66;4991855;28;20450;-78
2022/01/10 05:50:42;;;;;;;8.53;7.57;;;7.40;73.70;;;-142.21;100.00;112049.66;4992012;28;20195;-78
2022/01/10 05:53:11;;;;;;;11.27;8.90;;;7.40;73.80;;;-142.21;100.00;112049.66;4955570;28;20463;-78
2022/01/10 05:55:38;;;;;;;8.87;7.70;;;7.40;73.80;;;-142.21;100.00;112049.66;4974041;28;20558;-78
2022/01/10 05:58:07;;;;;;;10.13;7.93;;;7.40;73.70;;;-142.21;100.00;112049.66;4976137;28;20451;-79
2022/01/10 06:00:35;;;;;;;12.00;9.73;;;7.40;74.00;;;-142.21;100.00;112049.66;4976667;28;20452;-79
2022/01/10 06:03:02;;;;;;;11.97;8.77;;;7.30;74.00;;;-142.21;100.00;112049.66;4975653;28;20456;-78
2022/01/10 06:05:31;;;;;;;9.00;7.50;;;7.30;74.00;;;-142.21;100.00;112049.66;4977132;28;20487;-79
2022/01/10 06:08:00;;;;;;;9.40;7.60;;;7.30;74.30;;;-142.21;100.00;112049.66;4978079;28;20459;-78
2022/01/10 06:10:27;;;;;;;9.80;7.93;;;7.30;74.50;;;-142.21;100.00;112049.66;4984209;28;20554;-78
2022/01/10 06:12:55;;;;;;;9.60;8.60;;;7.30;74.80;;;-142.21;100.00;112049.66;4978644;28;20494;-78
2022/01/10 06:15:23;;;;;;;15.73;10.87;;;7.30;74.40;;;-142.21;100.00;112049.66;4995813;28;20557;-78
2022/01/10 06:17:51;;;;;;;9.90;8.17;;;7.30;74.20;;;-142.21;100.00;112049.66;4995722;28;20451;-79
2022/01/10 06:20:19;;;;;;;8.40;7.53;;;7.40;74.20;;;-142.21;100.00;112049.66;4957533;28;20510;-79
2022/01/10 06:22:48;;;;;;;8.73;7.83;;;7.40;74.10;;;-142.21;100.00;112049.66;4958920;28;20447;-78
2022/01/10 06:25:22;;;;;;;11.53;8.73;;;7.40;74.20;;;-142.21;100.00;112049.66;4975723;28;20502;-79
2022/01/10 06:27:50;;;;;;;10.47;8.43;;;7.40;74.30;;;-142.21;100.00;112049.66;4975999;28;20525;-77
2022/01/10 06:30:17;;;;;;;9.98;8.10;;;7.40;73.90;;;-142.21;100.00;112049.66;4975632;28;20547;-78
2022/01/10 06:32:45;;;;;;;12.48;9.57;;;7.50;73.50;;;-142.21;100.00;112049.66;4975860;28;20201;-78
2022/01/10 06:35:13;;;;;;;11.17;9.77;;;7.30;73.90;;;-142.21;100.00;112049.66;4986155;28;20203;-79
2022/01/10 06:37:40;;;;;;;8.63;7.33;;;7.30;74.20;;;-142.21;100.00;112049.66;4995185;28;20447;-79
2022/01/10 06:40:10;;;;;;;12.10;9.13;;;7.40;74.30;;;-142.21;100.00;112049.66;4995454;28;20451;-79
2022/01/10 06:42:38;;;;;;;11.02;7.35;;;7.30;74.40;;;-142.21;100.00;112049.66;4994710;28;20507;-79
2022/01/10 06:45:06;;;;;;;11.27;9.57;;;7.40;73.60;;;-142.21;100.00;112049.66;4995117;28;20269;-78
2022/01/10 06:47:33;;;;;;;8.73;7.70;;;7.40;73.60;;;-142.21;100.00;112049.66;4992930;28;21171;-78
2022/01/10 06:50:00;;;;;;;10.37;7.20;;;7.40;73.80;;;-142.21;100.00;112049.66;4994961;28;20569;-79
2022/01/10 06:52:28;;;;;;;8.30;7.43;;;7.30;73.80;;;-142.21;100.00;112049.66;4994335;28;20447;-78
2022/01/10 06:54:55;;;;;;;8.30;7.20;;;7.20;73.60;;;-142.21;100.00;112049.66;4994708;28;20447;-79
2022/01/10 06:57:23;;;;;;;8.73;7.73;;;7.30;73.80;;;-142.21;100.00;112049.66;4977694;28;20812;-80
2022/01/10 06:59:51;;;;;;;9.80;7.87;;;7.30;74.00;;;-142.21;100.00;112049.66;4994982;28;20454;-78
2022/01/10 07:02:18;;;;;;;10.50;8.83;;;7.40;74.10;;;-142.21;100.00;112049.66;4977045;28;20443;-79
2022/01/10 07:04:45;;;;;;;8.17;7.20;;;7.40;74.00;;;-142.21;100.00;112049.66;4994203;28;20491;-80
2022/01/10 07:07:13;;;;;;;9.20;7.77;;;7.40;73.70;;;-142.21;100.00;112049.66;4976316;28;20457;-80
2022/01/10 07:09:40;;;;;;;8.67;7.13;;;7.40;73.70;;;-142.21;100.00;112049.66;4994212;28;20490;-79
2022/01/10 07:12:09;;;;;;;8.23;7.17;;;7.40;73.70;;;-142.21;100.00;112049.66;4993667;28;20531;-79
2022/01/10 07:14:37;;;;;;;8.90;7.90;;;7.40;73.70;;;-142.21;100.00;112049.66;4987724;28;20525;-80
2022/01/10 07:17:05;;;;;;;8.60;7.43;;;7.40;73.80;;;-142.21;100.00;112049.66;4975215;28;20539;-79
2022/01/10 07:19:33;;;;;;;9.20;8.23;;;7.50;73.40;;;-142.21;100.00;112049.66;4966829;28;20959;-80
2022/01/10 07:22:01;;;;;;;9.47;7.73;;;7.40;73.30;;;-142.21;100.00;112049.66;4993312;28;20529;-80
2022/01/10 07:24:28;;;;;;;8.68;7.38;;;7.40;73.80;;;-142.21;100.00;112049.66;4993008;28;20534;-76
2022/01/10 07:26:55;;;;;;;9.10;8.13;;;7.40;73.80;;;-142.21;100.00;112049.66;4989381;28;20204;-78
2022/01/10 07:29:22;;;;;;;9.40;8.13;;;7.50;74.10;;;-142.21;100.00;112049.66;4991389;28;20530;-78
2022/01/10 07:31:50;;;;;;;10.32;8.75;;;7.50;74.20;;;-142.21;100.00;112049.66;4991914;28;20450;-79
2022/01/10 07:34:18;;;;;;;9.50;8.20;;;7.50;74.30;;;-142.21;100.00;112049.66;4992664;28;20214;-78
2022/01/10 07:36:45;;;;;;;10.85;8.75;;;7.50;74.20;;;-142.21;100.00;112049.66;4992843;28;20461;-78
2022/01/10 07:39:13;;;;;;;10.73;8.93;;;7.50;74.30;;;-142.21;100.00;112049.66;4992685;28;20584;-78
2022/01/10 07:41:40;;;;;;;12.70;10.33;;;7.50;74.40;;;-142.21;100.00;112049.66;4992742;28;20478;-78
2022/01/10 07:44:07;;;;;;;12.30;8.97;;;7.60;74.40;;;-142.21;100.00;112049.66;4991335;28;20455;-79
2022/01/10 07:46:35;;;;;;;13.97;8.93;;;7.60;74.20;;;-142.21;100.00;112049.66;4992340;28;20562;-79
2022/01/10 07:49:03;;;;;;;11.77;10.30;;;7.50;73.90;;;-142.21;100.00;112049.66;4983141;28;20559;-79
2022/01/10 07:51:31;;;;;;;27.23;19.10;;;7.50;74.10;;;-142.21;100.00;112049.66;4973011;28;20992;-77
2022/01/10 07:53:59;;;;;;;22.33;17.57;;;7.50;74.30;;;-142.21;100.00;112049.66;4988844;28;20475;-78
2022/01/10 07:56:26;;;;;;;15.13;13.32;;;7.50;74.20;;;-142.21;100.00;112049.66;4991731;28;20811;-79
2022/01/10 07:58:53;;;;;;;14.20;11.87;;;7.50;74.20;;;-142.21;100.00;112049.66;4991666;28;20241;-78
2022/01/10 08:01:21;;;;;;;15.30;11.30;;;7.50;74.30;;;-142.21;100.00;112049.66;4991041;28;20580;-77
2022/01/10 08:03:50;;;;;;;16.77;13.07;;;7.60;74.50;;;-142.21;100.00;112049.66;4992159;28;20554;-78
2022/01/10 08:06:20;;;;;;;14.97;13.37;;;7.50;74.60;;;-142.21;100.00;112049.66;4990818;28;20501;-78
2022/01/10 08:08:47;;;;;;;13.77;12.10;;;7.50;74.80;;;-142.21;100.00;112049.66;4991768;28;20457;-80
2022/01/10 08:11:15;;;;;;;17.13;13.37;;;7.60;74.90;;;-142.21;100.00;112049.66;4987992;28;20455;-77
2022/01/10 08:13:43;;;;;;;16.23;13.73;;;7.60;74.70;;;-142.21;100.00;112049.66;4991904;28;20455;-79
2022/01/10 08:16:10;;;;;;;13.80;12.33;;;7.70;74.40;;;-142.21;100.00;112049.66;4990912;28;20510;-79
2022/01/10 08:18:38;;;;;;;13.47;12.03;;;7.70;74.40;;;-142.21;100.00;112049.66;4991694;28;20955;-78
2022/01/10 08:21:06;;;;;;;12.80;11.43;;;7.80;74.60;;;-142.21;100.00;112049.66;4991354;28;20493;-77
2022/01/10 08:23:35;;;;;;;12.10;10.27;;;7.80;74.70;;;-142.21;100.00;112049.66;4990528;28;20955;-78
2022/01/10 08:26:08;;;;;;;9.57;8.67;;;7.90;74.70;;;-142.21;100.00;112049.66;4991840;28;20560;-76
2022/01/10 08:28:35;;;;;;;9.43;8.53;;;8.00;74.30;;;-142.21;100.00;112049.66;4990991;28;20455;-78
2022/01/10 08:31:03;;;;;;;10.50;8.50;;;8.10;74.10;;;-142.21;100.00;112049.66;4992194;28;20474;-77
2022/01/10 08:33:30;;;;;;;10.77;9.10;;;8.10;73.70;;;-142.21;100.00;112049.66;4991216;28;20454;-77
2022/01/10 08:35:58;;;;;;;9.90;9.00;;;8.20;73.60;;;-142.21;100.00;112049.66;4991856;28;20506;-76
2022/01/10 08:38:26;;;;;;;11.07;9.90;;;8.20;73.30;;;-142.21;100.00;112049.66;4990810;28;20514;-77
2022/01/10 08:40:54;;;;;;;9.93;8.60;;;8.20;73.30;;;-142.21;100.00;112049.66;4957413;28;20463;-79
2022/01/10 08:43:22;;;;;;;11.37;9.07;;;8.20;73.60;;;-142.21;100.00;112049.66;4990724;28;20910;-78
2022/01/10 08:45:49;;;;;;;9.83;8.83;;;8.20;73.70;;;-142.21;100.00;112049.66;4973975;28;20557;-77
2022/01/10 08:48:16;;;;;;;14.30;9.83;;;8.20;73.60;;;-142.21;100.00;112049.66;4990863;28;20542;-79
2022/01/10 08:50:43;;;;;;;12.37;9.17;;;8.30;73.50;;;-142.21;100.00;112049.66;4990454;28;20474;-79
2022/01/10 08:53:11;;;;;;;16.37;13.63;;;8.50;73.20;;;-142.21;100.00;112049.66;4988937;28;20551;-79
2022/01/10 08:55:39;;;;;;;19.47;17.43;;;8.70;72.80;;;-142.21;100.00;112049.66;4990539;28;20939;-79
2022/01/10 08:58:08;;;;;;;15.03;12.60;;;8.70;72.20;;;-142.21;100.00;112049.66;4991343;28;20479;-80
2022/01/10 09:00:35;;;;;;;15.60;10.90;;;8.90;72.30;;;-142.21;100.00;112049.66;4990520;28;20542;-80
2022/01/10 09:03:03;;;;;;;13.47;11.83;;;8.90;72.10;;;-142.21;100.00;112049.66;4990990;28;20989;-77
2022/01/10 09:05:32;;;;;;;12.73;11.00;;;9.00;71.80;;;-142.21;100.00;112049.66;4990980;28;20487;-78
2022/01/10 09:08:02;;;;;;;12.77;9.63;;;9.30;71.50;;;-142.21;100.00;112049.66;4990827;28;20807;-79
2022/01/10 09:10:29;;;;;;;11.17;9.17;;;10.00;68.60;;;-142.21;100.00;112049.66;4991681;28;20749;-79
2022/01/10 09:12:57;;;;;;;13.13;10.07;;;10.10;68.20;;;-142.21;100.00;112049.66;4990227;28;21002;-79
2022/01/10 09:15:27;;;;;;;11.37;9.33;;;10.30;67.70;;;-142.21;100.00;112049.66;4991425;28;20478;-80
2022/01/10 09:17:54;;;;;;;12.90;10.40;;;10.40;67.20;;;-142.21;100.00;112049.66;4990419;28;20542;-79
2022/01/10 09:20:22;;;;;;;13.40;10.30;;;10.40;65.80;;;-142.21;100.00;112049.66;4985859;28;20458;-78
2022/01/10 09:22:49;;;;;;;10.60;8.93;;;10.60;66.00;;;-142.21;100.00;112049.66;4984335;28;20463;-79
2022/01/10 09:25:17;;;;;;;13.60;9.60;;;10.80;65.30;;;-142.21;100.00;112049.66;4990673;28;20861;-79
2022/01/10 09:27:44;;;;;;;11.63;9.30;;;11.00;65.20;;;-142.21;100.00;112049.66;4990166;28;20825;-79
2022/01/10 09:30:13;;;;;;;11.30;8.23;;;11.50;64.60;;;-142.21;100.00;112049.66;4990487;28;20862;-78
2022/01/10 09:32:43;;;;;;;10.97;8.13;;;11.60;63.60;;;-142.21;100.00;112049.66;4994651;28;20841;-77
2022/01/10 09:35:10;;;;;;;9.60;7.40;;;11.80;62.70;;;-142.21;100.00;112049.66;4994602;28;20502;-76
2022/01/10 09:37:37;;;;;;;8.47;6.87;;;12.10;62.00;;;-142.21;99.18;112049.66;4994721;28;20516;-78
2022/01/10 09:40:07;;;;;;;10.07;7.27;;;12.00;61.10;;;-142.21;97.36;112049.66;4994865;28;20455;-78
2022/01/10 09:42:35;;;;;;;8.83;6.77;;;11.90;61.70;;;-142.21;98.40;112049.66;4994696;28;20517;-77
2022/01/10 09:45:03;;;;;;;7.60;6.60;;;11.90;61.90;;;-142.21;98.14;112049.66;4988755;28;20475;-79
2022/01/10 09:47:30;;;;;;;9.43;7.17;;;12.00;61.70;;;-142.21;96.45;112049.66;4991743;28;20506;-80
2022/01/10 09:49:59;;;;;;;9.30;6.30;;;12.20;60.90;;;-142.21;92.03;112049.66;4995056;28;20995;-79
2022/01/10 09:52:27;;;;;;;9.23;6.57;;;12.60;59.80;;;-142.21;85.45;112049.66;4975400;28;20582;-79
2022/01/10 09:54:54;;;;;;;6.93;6.23;;;13.10;59.30;;;-142.21;85.45;112049.66;4980556;28;20546;-78
2022/01/10 09:57:21;;;;;;;8.10;5.80;;;13.50;58.30;;;-142.21;83.26;112049.66;4991998;28;20527;-77
2022/01/10 09:59:51;;;;;;;7.87;5.70;;;13.40;57.70;;;-142.21;86.42;112049.66;4994531;28;20845;-79
2022/01/10 10:02:20;;;;;;;7.97;5.90;;;13.50;57.80;;;-142.21;88.88;112049.66;4992652;28;20497;-78
2022/01/10 10:04:47;;;;;;;9.97;6.13;;;13.40;57.30;;;-142.21;87.88;112049.66;4985523;28;20448;-79